Terminal Aerodrome Forecast
Issued by NWS

Home | Current Version | Previous Version | Text Only | Print | Product List | Glossary On
Versions: 1 2 3 4 5 6 7 8 9 10 11 12 13 14 15 16 17 18 19 20 21 22 23
620
FTUS46 KOTX 212321
TAFCOE
TAF
KCOE 212321Z 2200/2224 24016G24KT P6SM FEW070 BKN200
     FM220100 23014KT P6SM BKN200
     FM220300 20006KT P6SM SCT150 BKN200
     FM220500 VRB04KT P6SM SCT150 BKN200
     FM221200 08006KT P6SM SCT150 BKN200
     FM221900 33007KT P6SM SCT150 BKN200=

USA.gov is the U.S. government's official web portal to all federal, state and local government web resources and services.